Amy C. Mc Allister — WCZ9520 — position and weather

sailwx.info

Track history (hours):
 
Tides and Currents Weather Stations Pressure Air Temp Water Temp Dewpoint Dewpoint Depression Visibility Wind Speed Wind Dir Waves Ship Positions

Amy C. Mc Allister

Owner: MC ALLISTER TOWING & TRANSPORTATION INC, NEW YORK, NY. More information available from US FCC via Universal Licensing System and Coast Guard Vessel Documentation Center.

Last reported at 2017-Apr-29 15:20 UTC. Time now 2017-Apr-29 15:35 UTC.
Position N 40°33' W 074°13'.

; draft 4.9 m.

Type: Towing. MMSI: 366995040.

Date/timePositionNaut miles runAvg speedWind from/ knotsBaromVisibWave heightAir tempDewpointWater temp
2017-Apr-29 15:20N 40°33' W 074°13'1 0.1
2017-Apr-29 10:33N 40°34' W 074°14'0 0.0
2017-Apr-29 07:48N 40°33' W 074°14'310.7
2017-Apr-29 07:29N 40°36' W 074°12'3 5.7
2017-Apr-29 07:00N 40°38' W 074°10'0 0.0
2017-Apr-29 06:30N 40°38' W 074°10'0 0.0
2017-Apr-29 06:00N 40°38' W 074°10'0 0.0
2017-Apr-29 05:30N 40°38' W 074°10'0 0.0
2017-Apr-29 05:00N 40°38' W 074°10'0 0.0
2017-Apr-29 04:30N 40°38' W 074°10'0 0.0
2017-Apr-29 04:00N 40°38' W 074°10'2 3.4
2017-Apr-29 03:30N 40°38' W 074°12'0 0.4
2017-Apr-29 03:00N 40°38' W 074°12'0 0.3
2017-Apr-29 02:30N 40°38' W 074°12'2 4.4
2017-Apr-29 02:01N 40°39' W 074°09'3 6.4
2017-Apr-29 01:30N 40°39' W 074°05'2 3.6
2017-Apr-29 01:01N 40°38' W 074°03'2 3.9
2017-Apr-29 00:31N 40°40' W 074°04'0 0.1
2017-Apr-29 00:01N 40°40' W 074°04'0 0.0
2017-Apr-28 23:31N 40°40' W 074°04'0 0.0
2017-Apr-28 23:00N 40°40' W 074°04'1 1.4
2017-Apr-28 22:31N 40°40' W 074°03'3 6.8
2017-Apr-28 22:00N 40°42' W 074°00'1 2.9
2017-Apr-28 21:30N 40°42' W 073°58'2 3.5
2017-Apr-28 21:01N 40°42' W 074°00'4 7.9
2017-Apr-28 20:31N 40°39' W 074°05'1 2.0
2017-Apr-28 20:01N 40°39' W 074°03'1 1.9
2017-Apr-28 19:31N 40°40' W 074°04'3 5.6
2017-Apr-28 19:01N 40°39' W 074°07'4 7.7
2017-Apr-28 18:30N 40°37' W 074°12'1 0.6
2017-Apr-28 16:59N 40°38' W 074°12'2 3.8
2017-Apr-28 16:30N 40°39' W 074°10'1 2.4
2017-Apr-28 16:00N 40°38' W 074°11'0 0.9
2017-Apr-28 15:30N 40°39' W 074°11'3 5.1
2017-Apr-28 15:01N 40°39' W 074°08'1 1.3
2017-Apr-28 14:01N 40°40' W 074°09'0 0.2
2017-Apr-28 13:30N 40°40' W 074°09'0 0.1
2017-Apr-28 13:01N 40°40' W 074°09'0 0.0
2017-Apr-28 12:31N 40°40' W 074°09'3 6.3
2017-Apr-28 12:00N 40°38' W 074°12'4 8.4
2017-Apr-28 11:30N 40°33' W 074°14'0 0.8
2017-Apr-28 10:50N 40°33' W 074°15'3 3.9
2017-Apr-28 10:03N 40°36' W 074°12'0 3.2
2017-Apr-28 09:56N 40°36' W 074°12'2 4.2
2017-Apr-28 09:30N 40°38' W 074°12'0 0.1
2017-Apr-28 09:00N 40°38' W 074°12'1 1.3
2017-Apr-28 08:30N 40°38' W 074°11'0 0.3
2017-Apr-28 08:00N 40°38' W 074°11'0 0.0
2017-Apr-28 07:30N 40°38' W 074°11'0 0.0
2017-Apr-28 07:00N 40°38' W 074°11'0 0.0
2017-Apr-28 06:31N 40°38' W 074°11'0 0.9
2017-Apr-28 06:01N 40°39' W 074°11'2 4.4
2017-Apr-28 05:31N 40°40' W 074°09'2 3.7
2017-Apr-28 05:00N 40°38' W 074°10'0 0.0
2017-Apr-28 04:30N 40°38' W 074°10'0 0.0
2017-Apr-28 04:00N 40°38' W 074°10'0 0.0
2017-Apr-28 03:30N 40°38' W 074°10'0 0.0
2017-Apr-28 03:00N 40°38' W 074°10'0 0.0
2017-Apr-28 02:30N 40°38' W 074°10'1 1.2
2017-Apr-28 02:00N 40°39' W 074°10'3 5.4
2017-Apr-28 01:30N 40°36' W 074°12'3 5.7
2017-Apr-28 00:58N 40°33' W 074°13'1 1.5
2017-Apr-28 00:29N 40°33' W 074°14'0 0.0
2017-Apr-27 23:36N 40°33' W 074°14'1 2.0
2017-Apr-27 22:55N 40°34' W 074°13'3 6.4
2017-Apr-27 22:29N 40°37' W 074°12'4 7.5
2017-Apr-27 22:00N 40°39' W 074°09'1 1.7
2017-Apr-27 21:31N 40°40' W 074°08'2 3.4
2017-Apr-27 21:01N 40°39' W 074°08'3 6.6
2017-Apr-27 20:30N 40°39' W 074°04'2 3.5
2017-Apr-27 20:01N 40°37' W 074°03'2 4.6
2017-Apr-27 19:30N 40°39' W 074°05'4 7.6
2017-Apr-27 19:00N 40°38' W 074°10'0 0.0
2017-Apr-27 18:30N 40°38' W 074°10'0 0.0
2017-Apr-27 18:00N 40°38' W 074°10'0 0.9
2017-Apr-27 17:30N 40°39' W 074°09'0 0.9
2017-Apr-27 17:00N 40°38' W 074°10'0 0.0
2017-Apr-27 16:30N 40°38' W 074°10'0 0.0
2017-Apr-27 16:00N 40°38' W 074°10'0 0.0
2017-Apr-27 15:30N 40°38' W 074°10'0 0.0
2017-Apr-27 15:00N 40°38' W 074°10'0 0.1
2017-Apr-27 14:00N 40°38' W 074°10'2 4.8
2017-Apr-27 13:30N 40°39' W 074°07'1 1.2
2017-Apr-27 13:01N 40°39' W 074°06'2 4.7
2017-Apr-27 12:31N 40°38' W 074°03'1 1.2
2017-Apr-27 12:00N 40°38' W 074°04'3 6.4
2017-Apr-27 11:30N 40°39' W 074°08'2 3.2
2017-Apr-27 11:00N 40°38' W 074°10'0 0.4
2017-Apr-27 10:29N 40°39' W 074°10'1 2.0
2017-Apr-27 10:00N 40°39' W 074°11'2 3.5
2017-Apr-27 09:30N 40°39' W 074°09'1 2.6
2017-Apr-27 09:01N 40°40' W 074°09'1 2.5
2017-Apr-27 08:26N 40°39' W 074°09'2 5.0
2017-Apr-27 08:00N 40°39' W 074°06'2 3.7
2017-Apr-27 07:30N 40°38' W 074°04'3 6.8
2017-Apr-27 07:01N 40°39' W 074°08'1 2.6
2017-Apr-27 06:30N 40°38' W 074°10'0 0.0
2017-Apr-27 06:00N 40°38' W 074°10'0 0.0
2017-Apr-27 05:30N 40°38' W 074°10'0 0.0
2017-Apr-27 05:00N 40°38' W 074°10'0 0.0
2017-Apr-27 04:30N 40°38' W 074°10'0 0.0
2017-Apr-27 04:01N 40°38' W 074°10'0 0.0
2017-Apr-27 03:30N 40°38' W 074°10'1 1.3
2017-Apr-27 03:00N 40°39' W 074°09'2 4.6
2017-Apr-27 02:30N 40°41' W 074°09'2 4.8
2017-Apr-27 02:00N 40°39' W 074°10'2 3.7
2017-Apr-27 01:30N 40°38' W 074°12'0 0.1
2017-Apr-27 01:00N 40°38' W 074°12'2 3.2
2017-Apr-27 00:30N 40°39' W 074°10'3 5.5
2017-Apr-27 00:00N 40°39' W 074°07'3 5.3
2017-Apr-26 23:30N 40°38' W 074°03'1 1.2
2017-Apr-26 23:00N 40°39' W 074°04'3 6.2
2017-Apr-26 22:31N 40°39' W 074°08'3 6.8
2017-Apr-26 22:00N 40°37' W 074°12'4 1.9
2017-Apr-26 19:52N 40°33' W 074°14'3 6.5
2017-Apr-26 19:29N 40°35' W 074°12'0 0.5
2017-Apr-26 19:00N 40°35' W 074°12'0 0.3
2017-Apr-26 18:29N 40°35' W 074°12'2 4.3
2017-Apr-26 17:56N 40°33' W 074°14'0 0.5
2017-Apr-26 17:29N 40°33' W 074°14'2 4.0
2017-Apr-26 16:58N 40°35' W 074°12'3 5.6
2017-Apr-26 16:29N 40°38' W 074°12'2 3.7
2017-Apr-26 16:00N 40°38' W 074°10'0 0.0
2017-Apr-26 15:30N 40°38' W 074°10'0 0.0
2017-Apr-26 15:00N 40°38' W 074°10'0 0.0
2017-Apr-26 14:31N 40°38' W 074°10'4 3.8
2017-Apr-26 13:28N 40°35' W 074°13'0 0.1
2017-Apr-26 13:00N 40°35' W 074°13'0 0.5
2017-Apr-26 12:14N 40°35' W 074°12'1 3.8
2017-Apr-26 12:00N 40°36' W 074°12'2 4.6
2017-Apr-26 11:30N 40°38' W 074°12'4 7.2
2017-Apr-26 11:01N 40°39' W 074°07'3 5.1
2017-Apr-26 10:30N 40°38' W 074°04'0 0.3
2017-Apr-26 10:01N 40°38' W 074°04'3 6.4
2017-Apr-26 09:30N 40°39' W 074°08'2 3.2
2017-Apr-26 09:00N 40°38' W 074°10'0 0.0
2017-Apr-26 08:30N 40°38' W 074°10'0 0.1
2017-Apr-26 08:00N 40°38' W 074°10'0 0.0
2017-Apr-26 07:30N 40°38' W 074°10'0 0.0
2017-Apr-26 07:00N 40°38' W 074°10'0 0.0
2017-Apr-26 06:30N 40°38' W 074°10'0 0.0
2017-Apr-26 06:00N 40°38' W 074°10'0 0.0
2017-Apr-26 05:30N 40°38' W 074°10'0 0.0
2017-Apr-26 05:01N 40°38' W 074°10'0 0.0
2017-Apr-26 04:30N 40°38' W 074°10'0 0.0
2017-Apr-26 04:00N 40°38' W 074°10'0 0.0
2017-Apr-26 03:30N 40°38' W 074°10'0 0.0
2017-Apr-26 03:01N 40°38' W 074°10'0 0.0
2017-Apr-26 02:30N 40°38' W 074°10'7 0.8
2017-Apr-25 17:44N 40°33' W 074°15'1 5.6
2017-Apr-25 17:30N 40°33' W 074°14'3 4.5
2017-Apr-25 16:57N 40°36' W 074°12'0 0.0
2017-Apr-25 16:30N 40°36' W 074°12'1 0.6
2017-Apr-25 14:36N 40°35' W 074°13'3 6.3
2017-Apr-25 14:08N 40°33' W 074°15'3 3.7
2017-Apr-25 13:26N 40°34' W 074°13'2 4.8
2017-Apr-25 13:00N 40°36' W 074°12'3 5.7
2017-Apr-25 12:30N 40°39' W 074°10'3 6.8
2017-Apr-25 12:01N 40°39' W 074°06'2 3.4
2017-Apr-25 11:30N 40°40' W 074°04'0 0.0
2017-Apr-25 11:00N 40°40' W 074°04'0 0.0
2017-Apr-25 10:31N 40°40' W 074°04'0 0.0
2017-Apr-25 10:00N 40°40' W 074°04'1 1.5
2017-Apr-25 09:30N 40°40' W 074°05'1 2.0
2017-Apr-25 09:01N 40°40' W 074°04'1 2.4
2017-Apr-25 08:31N 40°39' W 074°05'4 8.0
2017-Apr-25 08:01N 40°39' W 074°10'1 1.8
2017-Apr-25 07:29N 40°38' W 074°12'1 2.6
2017-Apr-25 07:00N 40°38' W 074°10'0 0.1
2017-Apr-25 06:29N 40°38' W 074°10'0 0.1
2017-Apr-25 06:00N 40°38' W 074°10'0 0.0
2017-Apr-25 05:30N 40°38' W 074°10'0 0.0
2017-Apr-25 05:00N 40°38' W 074°10'0 0.0
2017-Apr-25 04:30N 40°38' W 074°10'0 0.0
2017-Apr-25 04:00N 40°38' W 074°10'0 0.0
2017-Apr-25 03:30N 40°38' W 074°10'0 0.0
2017-Apr-25 03:00N 40°38' W 074°10'0 0.0
2017-Apr-25 02:30N 40°38' W 074°10'1 1.2
2017-Apr-25 02:00N 40°39' W 074°10'2 3.5
2017-Apr-25 01:30N 40°38' W 074°12'4 8.3
2017-Apr-25 00:58N 40°33' W 074°14'0 0.0
2017-Apr-24 21:59N 40°33' W 074°14'0 0.0
2017-Apr-24 20:31N 40°34' W 074°14'0 0.3
2017-Apr-24 20:07N 40°33' W 074°14'0 0.3
2017-Apr-24 19:56N 40°33' W 074°14'0 0.0
2017-Apr-24 19:30N 40°33' W 074°14'1 2.0
2017-Apr-24 18:50N 40°34' W 074°13'3 7.9
2017-Apr-24 18:31N 40°37' W 074°12'4 7.2
2017-Apr-24 18:00N 40°39' W 074°09'1 2.4
2017-Apr-24 17:31N 40°40' W 074°08'2 3.5
2017-Apr-24 17:01N 40°39' W 074°08'4 7.2
2017-Apr-24 16:31N 40°38' W 074°03'0 0.7
2017-Apr-24 16:00N 40°38' W 074°04'5 9.1
2017-Apr-24 15:30N 40°38' W 074°10'0 0.1
2017-Apr-24 15:00N 40°38' W 074°10'0 0.0
2017-Apr-24 14:30N 40°38' W 074°10'0 0.0
2017-Apr-24 13:31N 40°38' W 074°10'2 3.1
2017-Apr-24 13:00N 40°38' W 074°12'0 0.5
2017-Apr-24 12:30N 40°38' W 074°12'0 0.0
2017-Apr-24 12:01N 40°38' W 074°12'0 0.3
2017-Apr-24 11:30N 40°38' W 074°12'2 3.3
2017-Apr-24 11:00N 40°39' W 074°10'2 4.0
2017-Apr-24 10:30N 40°39' W 074°07'0 0.1
2017-Apr-24 10:01N 40°39' W 074°07'3 5.7
2017-Apr-24 09:30N 40°39' W 074°04'2 3.1
2017-Apr-24 09:00N 40°37' W 074°03'1 1.5
2017-Apr-24 08:30N 40°38' W 074°03'4 8.4
2017-Apr-24 08:01N 40°38' W 074°09'1 1.7
2017-Apr-24 07:30N 40°38' W 074°10'0 0.0
2017-Apr-24 07:01N 40°38' W 074°10'0 0.0
2017-Apr-24 06:30N 40°38' W 074°10'0 0.0
2017-Apr-24 06:00N 40°38' W 074°10'0 0.0
2017-Apr-24 05:30N 40°38' W 074°10'0 0.0
2017-Apr-24 05:00N 40°38' W 074°10'0 0.0
2017-Apr-24 04:30N 40°38' W 074°10'0 0.0
2017-Apr-24 04:00N 40°38' W 074°10'0 0.0
2017-Apr-24 03:30N 40°38' W 074°10'0 0.0
2017-Apr-24 03:00N 40°38' W 074°10'0 0.0
2017-Apr-24 02:30N 40°38' W 074°10'0 0.0
2017-Apr-24 02:00N 40°38' W 074°10'0 0.0
2017-Apr-24 01:31N 40°38' W 074°10'0 0.0
2017-Apr-24 01:00N 40°38' W 074°10'0 0.0
2017-Apr-24 00:31N 40°38' W 074°10'3 6.3
2017-Apr-24 00:00N 40°41' W 074°08'1 1.4
2017-Apr-23 23:30N 40°42' W 074°09'2 4.5
2017-Apr-23 23:01N 40°40' W 074°09'3 6.1
2017-Apr-23 22:30N 40°39' W 074°05'1 2.6
2017-Apr-23 22:00N 40°38' W 074°04'3 6.1
2017-Apr-23 21:30N 40°39' W 074°08'2 3.1
2017-Apr-23 21:00N 40°38' W 074°10'3 6.8
2017-Apr-23 20:30N 40°42' W 074°09'2 5.0
2017-Apr-23 20:00N 40°39' W 074°09'1 1.6
2017-Apr-23 19:31N 40°38' W 074°09'1 1.8
2017-Apr-23 18:59N 40°38' W 074°10'0 0.0
2017-Apr-23 18:30N 40°38' W 074°10'0 0.0
2017-Apr-23 18:00N 40°38' W 074°10'0 0.0
2017-Apr-23 17:30N 40°38' W 074°10'0 0.0
2017-Apr-23 17:00N 40°38' W 074°10'0 0.0
2017-Apr-23 16:30N 40°38' W 074°10'0 0.0
2017-Apr-23 16:00N 40°38' W 074°10'0 0.0
2017-Apr-23 15:30N 40°38' W 074°10'0 0.0
2017-Apr-23 15:00N 40°38' W 074°10'0 0.0
2017-Apr-23 14:30N 40°38' W 074°10'0 0.0
2017-Apr-23 13:31N 40°38' W 074°10'0 0.0
2017-Apr-23 13:00N 40°38' W 074°10'0 0.0
2017-Apr-23 12:30N 40°38' W 074°10'0 0.0
2017-Apr-23 12:00N 40°38' W 074°10'0 0.0
2017-Apr-23 11:30N 40°38' W 074°10'0 0.0
2017-Apr-23 11:01N 40°38' W 074°10'0 0.0
2017-Apr-23 10:30N 40°38' W 074°10'4 3.4
2017-Apr-23 09:19N 40°35' W 074°13'0 0.0
2017-Apr-23 08:59N 40°35' W 074°13'0 0.4
2017-Apr-23 08:27N 40°35' W 074°12'2 3.8
2017-Apr-23 07:59N 40°37' W 074°12'2 4.5
2017-Apr-23 07:30N 40°39' W 074°11'1 1.2
2017-Apr-23 07:00N 40°38' W 074°10'0 0.0
2017-Apr-23 06:30N 40°38' W 074°10'0 0.0
2017-Apr-23 06:00N 40°38' W 074°10'0 0.0
2017-Apr-23 05:30N 40°38' W 074°10'0 0.0
2017-Apr-23 05:01N 40°38' W 074°10'0 0.0
2017-Apr-23 04:31N 40°38' W 074°10'0 0.0
2017-Apr-23 04:00N 40°38' W 074°10'0 0.0
2017-Apr-23 03:29N 40°38' W 074°10'0 0.0
2017-Apr-23 03:00N 40°38' W 074°10'0 0.0
2017-Apr-23 02:31N 40°38' W 074°10'0 0.0
2017-Apr-23 02:00N 40°38' W 074°10'0 0.0
2017-Apr-23 01:30N 40°38' W 074°10'0 0.0
2017-Apr-23 01:00N 40°38' W 074°10'0 0.0
2017-Apr-23 00:30N 40°38' W 074°10'1 2.1
2017-Apr-23 00:00N 40°39' W 074°08'2 4.6
2017-Apr-22 23:30N 40°39' W 074°05'0 0.0
2017-Apr-22 23:00N 40°39' W 074°05'0 0.7
2017-Apr-22 22:30N 40°39' W 074°06'0 0.1
2017-Apr-22 22:00N 40°39' W 074°06'0 0.0
2017-Apr-22 21:30N 40°39' W 074°06'3 5.8
2017-Apr-22 21:01N 40°38' W 074°09'0 0.5
2017-Apr-22 20:30N 40°38' W 074°10'0 0.0
2017-Apr-22 20:00N 40°38' W 074°10'0 0.0
2017-Apr-22 19:30N 40°38' W 074°10'0 0.0
2017-Apr-22 19:00N 40°38' W 074°10'0 0.0
2017-Apr-22 18:30N 40°38' W 074°10'0 0.0
2017-Apr-22 18:00N 40°38' W 074°10'0 0.0
2017-Apr-22 17:30N 40°38' W 074°10'0 0.0
2017-Apr-22 17:00N 40°38' W 074°10'0 0.0
2017-Apr-22 16:30N 40°38' W 074°10'0 0.0
2017-Apr-22 16:00N 40°38' W 074°10'0 0.0
2017-Apr-22 15:30N 40°38' W 074°10'0 0.0
2017-Apr-22 15:00N 40°38' W 074°10'0 0.0
2017-Apr-22 14:30N 40°38' W 074°10'0 0.0
2017-Apr-22 13:30N 40°38' W 074°10'0 0.0
2017-Apr-22 13:00N 40°38' W 074°10'0 0.0
2017-Apr-22 12:30N 40°38' W 074°10'0 0.0
2017-Apr-22 12:00N 40°38' W 074°10'0 0.0
2017-Apr-22 11:30N 40°38' W 074°10'0 0.0
2017-Apr-22 11:01N 40°38' W 074°10'0 0.0
2017-Apr-22 10:30N 40°38' W 074°10'0 0.0
2017-Apr-22 10:00N 40°38' W 074°10'0 0.0
2017-Apr-22 09:30N 40°38' W 074°10'0 0.0
2017-Apr-22 09:00N 40°38' W 074°10'0 0.0
2017-Apr-22 08:30N 40°38' W 074°10'0 0.5
2017-Apr-22 08:00N 40°38' W 074°09'1 1.2
2017-Apr-22 07:28N 40°39' W 074°09'1 2.9
2017-Apr-22 07:00N 40°40' W 074°08'1 1.8
2017-Apr-22 06:30N 40°39' W 074°09'3 6.3
2017-Apr-22 06:01N 40°40' W 074°05'0 0.3
2017-Apr-22 05:31N 40°40' W 074°05'3 5.7
2017-Apr-22 05:00N 40°37' W 074°04'0 0.3
2017-Apr-22 04:30N 40°37' W 074°03'2 4.8
2017-Apr-22 04:00N 40°40' W 074°04'1 1.8
2017-Apr-22 03:30N 40°40' W 074°05'0 0.0
2017-Apr-22 03:00N 40°40' W 074°05'0 0.0
2017-Apr-22 02:30N 40°40' W 074°05'0 0.0
2017-Apr-22 02:00N 40°40' W 074°05'0 0.0
2017-Apr-22 01:30N 40°40' W 074°05'0 0.0
2017-Apr-22 01:00N 40°40' W 074°05'0 0.0
2017-Apr-22 00:30N 40°40' W 074°05'0 0.2
2017-Apr-22 00:00N 40°40' W 074°05'0 0.2
2017-Apr-21 23:30N 40°40' W 074°05'0 0.0
2017-Apr-21 23:00N 40°40' W 074°05'0 0.0
2017-Apr-21 22:30N 40°40' W 074°05'0 0.0
2017-Apr-21 22:00N 40°40' W 074°05'0 0.0
2017-Apr-21 21:30N 40°40' W 074°05'0 0.0
2017-Apr-21 21:00N 40°40' W 074°05'0 0.1
2017-Apr-21 20:30N 40°40' W 074°05'1 2.5
2017-Apr-21 20:00N 40°40' W 074°04'1 1.9
2017-Apr-21 19:30N 40°40' W 074°05'0 0.6
2017-Apr-21 19:00N 40°40' W 074°05'0 0.1
2017-Apr-21 18:30N 40°40' W 074°05'0 0.0
2017-Apr-21 18:00N 40°40' W 074°05'0 0.5
2017-Apr-21 17:30N 40°40' W 074°05'4 8.3
2017-Apr-21 17:01N 40°42' W 073°60'5 9.2
2017-Apr-21 16:30N 40°46' W 073°57'5 9.2
2017-Apr-21 16:00N 40°48' W 073°51'3 4.7
2017-Apr-21 15:27N 40°48' W 073°48'0 0.1
2017-Apr-21 14:58N 40°48' W 073°48'1 1.1
2017-Apr-21 14:28N 40°48' W 073°47'2 1.5
2017-Apr-21 13:28N 40°48' W 073°49'4 9.0
2017-Apr-21 13:00N 40°48' W 073°55'4 7.1
2017-Apr-21 12:30N 40°45' W 073°58'3 6.8
2017-Apr-21 12:00N 40°42' W 073°60'5 9.0
2017-Apr-21 11:30N 40°39' W 074°05'4 8.2
2017-Apr-21 11:00N 40°38' W 074°10'2 3.0
2017-Apr-21 10:30N 40°40' W 074°09'1 1.0
2017-Apr-21 10:00N 40°40' W 074°08'2 3.2
2017-Apr-21 09:30N 40°39' W 074°09'4 8.5
2017-Apr-21 09:01N 40°38' W 074°03'3 5.7
2017-Apr-21 08:30N 40°39' W 074°07'2 4.2
2017-Apr-21 08:00N 40°38' W 074°10'0 0.0
2017-Apr-21 07:30N 40°38' W 074°10'0 0.0
2017-Apr-21 07:00N 40°38' W 074°10'0 0.0
2017-Apr-21 06:30N 40°38' W 074°10'0 0.0
2017-Apr-21 06:00N 40°38' W 074°10'0 0.0
2017-Apr-21 05:30N 40°38' W 074°10'0 0.2
2017-Apr-21 05:00N 40°38' W 074°10'2 4.0
2017-Apr-21 04:30N 40°39' W 074°07'2 3.0
2017-Apr-21 04:00N 40°39' W 074°09'1 2.3
2017-Apr-21 03:30N 40°40' W 074°08'0 0.3
2017-Apr-21 03:00N 40°40' W 074°09'3 5.7
2017-Apr-21 02:30N 40°38' W 074°12'2 3.8
2017-Apr-21 02:00N 40°36' W 074°12'0 0.0
2017-Apr-21 01:30N 40°36' W 074°12'1 1.5
2017-Apr-21 01:00N 40°36' W 074°12'0 0.0
2017-Apr-21 00:30N 40°36' W 074°12'0 0.0
2017-Apr-20 23:59N 40°36' W 074°12'0 0.0
2017-Apr-20 23:30N 40°36' W 074°12'0 0.0
2017-Apr-20 23:00N 40°36' W 074°12'0 0.0
2017-Apr-20 21:36N 40°36' W 074°12'0 0.1
2017-Apr-20 21:29N 40°36' W 074°12'4 6.5
2017-Apr-20 20:54N 40°33' W 074°15'0 0.0
2017-Apr-20 20:27N 40°33' W 074°15'0 0.0
2017-Apr-20 19:53N 40°33' W 074°15'4 6.4
2017-Apr-20 19:15N 40°36' W 074°12'2 7.8
2017-Apr-20 19:00N 40°38' W 074°12'3 5.5
2017-Apr-20 18:30N 40°39' W 074°09'1 1.1
2017-Apr-20 18:00N 40°40' W 074°09'0 0.0
2017-Apr-20 17:30N 40°40' W 074°09'0 0.0
2017-Apr-20 17:00N 40°40' W 074°09'0 0.0
2017-Apr-20 16:30N 40°40' W 074°09'0 0.0
2017-Apr-20 16:00N 40°40' W 074°09'0 0.0
2017-Apr-20 15:30N 40°40' W 074°09'0 0.0
2017-Apr-20 15:00N 40°40' W 074°09'0 0.0
2017-Apr-20 14:30N 40°40' W 074°09'0 0.0
2017-Apr-20 13:30N 40°40' W 074°09'0 0.1
2017-Apr-20 13:00N 40°40' W 074°09'0 0.1
2017-Apr-20 12:30N 40°40' W 074°09'0 0.0
2017-Apr-20 12:00N 40°40' W 074°09'0 0.0
2017-Apr-20 11:30N 40°40' W 074°09'0 0.0
2017-Apr-20 11:00N 40°40' W 074°09'0 0.0
2017-Apr-20 10:30N 40°40' W 074°09'1 1.0
2017-Apr-20 10:00N 40°40' W 074°09'1 2.7
2017-Apr-20 09:30N 40°39' W 074°09'3 5.3
2017-Apr-20 09:00N 40°39' W 074°05'3 6.0
2017-Apr-20 08:30N 40°37' W 074°03'3 5.5
2017-Apr-20 08:00N 40°39' W 074°05'3 6.5
2017-Apr-20 07:30N 40°38' W 074°09'1 1.0
2017-Apr-20 07:00N 40°38' W 074°10'0 0.0
2017-Apr-20 06:30N 40°38' W 074°10'0 0.0
2017-Apr-20 06:00N 40°38' W 074°10'0 0.0
2017-Apr-20 05:30N 40°38' W 074°10'0 0.0
2017-Apr-20 05:00N 40°38' W 074°10'0 0.0
2017-Apr-20 04:30N 40°38' W 074°10'0 0.0
2017-Apr-20 04:00N 40°38' W 074°10'0 0.0
2017-Apr-20 03:30N 40°38' W 074°10'0 0.0
2017-Apr-20 03:00N 40°38' W 074°10'0 0.0
2017-Apr-20 02:30N 40°38' W 074°10'0 0.0
2017-Apr-20 02:00N 40°38' W 074°10'0 0.0
2017-Apr-20 01:30N 40°38' W 074°10'0 0.0
2017-Apr-20 01:00N 40°38' W 074°10'1 2.0
2017-Apr-20 00:30N 40°39' W 074°08'1 2.4
2017-Apr-20 00:00N 40°39' W 074°07'2 3.0
2017-Apr-19 23:29N 40°39' W 074°09'2 3.3
2017-Apr-19 23:00N 40°41' W 074°09'0 0.5
2017-Apr-19 22:30N 40°41' W 074°09'0 0.3
2017-Apr-19 22:00N 40°41' W 074°09'2 3.0
2017-Apr-19 21:29N 40°40' W 074°09'1 2.7
2017-Apr-19 20:59N 40°39' W 074°07'2 4.4
2017-Apr-19 20:30N 40°39' W 074°05'3 6.2
2017-Apr-19 20:00N 40°36' W 074°03'3 6.1
2017-Apr-19 19:30N 40°39' W 074°05'4 8.0
2017-Apr-19 19:00N 40°38' W 074°10'0 0.0
2017-Apr-19 18:28N 40°38' W 074°10'0 0.0
2017-Apr-19 18:00N 40°38' W 074°10'0 0.0
2017-Apr-19 17:30N 40°38' W 074°10'2 4.1
2017-Apr-19 17:00N 40°39' W 074°07'3 5.6
2017-Apr-19 16:30N 40°40' W 074°04'1 1.9
2017-Apr-19 16:00N 40°40' W 074°05'1 1.2
2017-Apr-19 15:31N 40°40' W 074°04'  
Track history (hours):
 
Tides and Currents Weather Stations Pressure Air Temp Water Temp Dewpoint Dewpoint Depression Visibility Wind Speed Wind Dir Waves Ship Positions

Amy C. Mc Allister

Owner: MC ALLISTER TOWING & TRANSPORTATION INC, NEW YORK, NY. More information available from US FCC via Universal Licensing System and Coast Guard Vessel Documentation Center.

Last reported at 2017-Apr-29 15:20 UTC. Time now 2017-Apr-29 15:35 UTC.
Position N 40°33' W 074°13'.

; draft 4.9 m.

Type: Towing. MMSI: 366995040.

Date/timePositionNaut miles runAvg speedWind from/ knotsBaromVisibWave heightAir tempDewpointWater temp
2017-Apr-29 15:20N 40°33' W 074°13'1 0.1
2017-Apr-29 10:33N 40°34' W 074°14'0 0.0
2017-Apr-29 07:48N 40°33' W 074°14'310.7
2017-Apr-29 07:29N 40°36' W 074°12'3 5.7
2017-Apr-29 07:00N 40°38' W 074°10'0 0.0
2017-Apr-29 06:30N 40°38' W 074°10'0 0.0
2017-Apr-29 06:00N 40°38' W 074°10'0 0.0
2017-Apr-29 05:30N 40°38' W 074°10'0 0.0
2017-Apr-29 05:00N 40°38' W 074°10'0 0.0
2017-Apr-29 04:30N 40°38' W 074°10'0 0.0
2017-Apr-29 04:00N 40°38' W 074°10'2 3.4
2017-Apr-29 03:30N 40°38' W 074°12'0 0.4
2017-Apr-29 03:00N 40°38' W 074°12'0 0.3
2017-Apr-29 02:30N 40°38' W 074°12'2 4.4
2017-Apr-29 02:01N 40°39' W 074°09'3 6.4
2017-Apr-29 01:30N 40°39' W 074°05'2 3.6
2017-Apr-29 01:01N 40°38' W 074°03'2 3.9
2017-Apr-29 00:31N 40°40' W 074°04'0 0.1
2017-Apr-29 00:01N 40°40' W 074°04'0 0.0
2017-Apr-28 23:31N 40°40' W 074°04'0 0.0
2017-Apr-28 23:00N 40°40' W 074°04'1 1.4
2017-Apr-28 22:31N 40°40' W 074°03'3 6.8
2017-Apr-28 22:00N 40°42' W 074°00'1 2.9
2017-Apr-28 21:30N 40°42' W 073°58'2 3.5
2017-Apr-28 21:01N 40°42' W 074°00'4 7.9
2017-Apr-28 20:31N 40°39' W 074°05'1 2.0
2017-Apr-28 20:01N 40°39' W 074°03'1 1.9
2017-Apr-28 19:31N 40°40' W 074°04'3 5.6
2017-Apr-28 19:01N 40°39' W 074°07'4 7.7
2017-Apr-28 18:30N 40°37' W 074°12'1 0.6
2017-Apr-28 16:59N 40°38' W 074°12'2 3.8
2017-Apr-28 16:30N 40°39' W 074°10'1 2.4
2017-Apr-28 16:00N 40°38' W 074°11'0 0.9
2017-Apr-28 15:30N 40°39' W 074°11'3 5.1
2017-Apr-28 15:01N 40°39' W 074°08'1 1.3
2017-Apr-28 14:01N 40°40' W 074°09'0 0.2
2017-Apr-28 13:30N 40°40' W 074°09'0 0.1
2017-Apr-28 13:01N 40°40' W 074°09'0 0.0
2017-Apr-28 12:31N 40°40' W 074°09'3 6.3
2017-Apr-28 12:00N 40°38' W 074°12'4 8.4
2017-Apr-28 11:30N 40°33' W 074°14'0 0.8
2017-Apr-28 10:50N 40°33' W 074°15'3 3.9
2017-Apr-28 10:03N 40°36' W 074°12'0 3.2
2017-Apr-28 09:56N 40°36' W 074°12'2 4.2
2017-Apr-28 09:30N 40°38' W 074°12'0 0.1
2017-Apr-28 09:00N 40°38' W 074°12'1 1.3
2017-Apr-28 08:30N 40°38' W 074°11'0 0.3
2017-Apr-28 08:00N 40°38' W 074°11'0 0.0
2017-Apr-28 07:30N 40°38' W 074°11'0 0.0
2017-Apr-28 07:00N 40°38' W 074°11'0 0.0
2017-Apr-28 06:31N 40°38' W 074°11'0 0.9
2017-Apr-28 06:01N 40°39' W 074°11'2 4.4
2017-Apr-28 05:31N 40°40' W 074°09'2 3.7
2017-Apr-28 05:00N 40°38' W 074°10'0 0.0
2017-Apr-28 04:30N 40°38' W 074°10'0 0.0
2017-Apr-28 04:00N 40°38' W 074°10'0 0.0
2017-Apr-28 03:30N 40°38' W 074°10'0 0.0
2017-Apr-28 03:00N 40°38' W 074°10'0 0.0
2017-Apr-28 02:30N 40°38' W 074°10'1 1.2
2017-Apr-28 02:00N 40°39' W 074°10'3 5.4
2017-Apr-28 01:30N 40°36' W 074°12'3 5.7
2017-Apr-28 00:58N 40°33' W 074°13'1 1.5
2017-Apr-28 00:29N 40°33' W 074°14'0 0.0
2017-Apr-27 23:36N 40°33' W 074°14'1 2.0
2017-Apr-27 22:55N 40°34' W 074°13'3 6.4
2017-Apr-27 22:29N 40°37' W 074°12'4 7.5
2017-Apr-27 22:00N 40°39' W 074°09'1 1.7
2017-Apr-27 21:31N 40°40' W 074°08'2 3.4
2017-Apr-27 21:01N 40°39' W 074°08'3 6.6
2017-Apr-27 20:30N 40°39' W 074°04'2 3.5
2017-Apr-27 20:01N 40°37' W 074°03'2 4.6
2017-Apr-27 19:30N 40°39' W 074°05'4 7.6
2017-Apr-27 19:00N 40°38' W 074°10'0 0.0
2017-Apr-27 18:30N 40°38' W 074°10'0 0.0
2017-Apr-27 18:00N 40°38' W 074°10'0 0.9
2017-Apr-27 17:30N 40°39' W 074°09'0 0.9
2017-Apr-27 17:00N 40°38' W 074°10'0 0.0
2017-Apr-27 16:30N 40°38' W 074°10'0 0.0
2017-Apr-27 16:00N 40°38' W 074°10'0 0.0
2017-Apr-27 15:30N 40°38' W 074°10'0 0.0
2017-Apr-27 15:00N 40°38' W 074°10'0 0.1
2017-Apr-27 14:00N 40°38' W 074°10'2 4.8
2017-Apr-27 13:30N 40°39' W 074°07'1 1.2
2017-Apr-27 13:01N 40°39' W 074°06'2 4.7
2017-Apr-27 12:31N 40°38' W 074°03'1 1.2
2017-Apr-27 12:00N 40°38' W 074°04'3 6.4
2017-Apr-27 11:30N 40°39' W 074°08'2 3.2
2017-Apr-27 11:00N 40°38' W 074°10'0 0.4
2017-Apr-27 10:29N 40°39' W 074°10'1 2.0
2017-Apr-27 10:00N 40°39' W 074°11'2 3.5
2017-Apr-27 09:30N 40°39' W 074°09'1 2.6
2017-Apr-27 09:01N 40°40' W 074°09'1 2.5
2017-Apr-27 08:26N 40°39' W 074°09'2 5.0
2017-Apr-27 08:00N 40°39' W 074°06'2 3.7
2017-Apr-27 07:30N 40°38' W 074°04'3 6.8
2017-Apr-27 07:01N 40°39' W 074°08'1 2.6
2017-Apr-27 06:30N 40°38' W 074°10'0 0.0
2017-Apr-27 06:00N 40°38' W 074°10'0 0.0
2017-Apr-27 05:30N 40°38' W 074°10'0 0.0
2017-Apr-27 05:00N 40°38' W 074°10'0 0.0
2017-Apr-27 04:30N 40°38' W 074°10'0 0.0
2017-Apr-27 04:01N 40°38' W 074°10'0 0.0
2017-Apr-27 03:30N 40°38' W 074°10'1 1.3
2017-Apr-27 03:00N 40°39' W 074°09'2 4.6
2017-Apr-27 02:30N 40°41' W 074°09'2 4.8
2017-Apr-27 02:00N 40°39' W 074°10'2 3.7
2017-Apr-27 01:30N 40°38' W 074°12'0 0.1
2017-Apr-27 01:00N 40°38' W 074°12'2 3.2
2017-Apr-27 00:30N 40°39' W 074°10'3 5.5
2017-Apr-27 00:00N 40°39' W 074°07'3 5.3
2017-Apr-26 23:30N 40°38' W 074°03'1 1.2
2017-Apr-26 23:00N 40°39' W 074°04'3 6.2
2017-Apr-26 22:31N 40°39' W 074°08'3 6.8
2017-Apr-26 22:00N 40°37' W 074°12'4 1.9
2017-Apr-26 19:52N 40°33' W 074°14'3 6.5
2017-Apr-26 19:29N 40°35' W 074°12'0 0.5
2017-Apr-26 19:00N 40°35' W 074°12'0 0.3
2017-Apr-26 18:29N 40°35' W 074°12'2 4.3
2017-Apr-26 17:56N 40°33' W 074°14'0 0.5
2017-Apr-26 17:29N 40°33' W 074°14'2 4.0
2017-Apr-26 16:58N 40°35' W 074°12'3 5.6
2017-Apr-26 16:29N 40°38' W 074°12'2 3.7
2017-Apr-26 16:00N 40°38' W 074°10'0 0.0
2017-Apr-26 15:30N 40°38' W 074°10'0 0.0
2017-Apr-26 15:00N 40°38' W 074°10'0 0.0
2017-Apr-26 14:31N 40°38' W 074°10'4 3.8
2017-Apr-26 13:28N 40°35' W 074°13'0 0.1
2017-Apr-26 13:00N 40°35' W 074°13'0 0.5
2017-Apr-26 12:14N 40°35' W 074°12'1 3.8
2017-Apr-26 12:00N 40°36' W 074°12'2 4.6
2017-Apr-26 11:30N 40°38' W 074°12'4 7.2
2017-Apr-26 11:01N 40°39' W 074°07'3 5.1
2017-Apr-26 10:30N 40°38' W 074°04'0 0.3
2017-Apr-26 10:01N 40°38' W 074°04'3 6.4
2017-Apr-26 09:30N 40°39' W 074°08'2 3.2
2017-Apr-26 09:00N 40°38' W 074°10'0 0.0
2017-Apr-26 08:30N 40°38' W 074°10'0 0.1
2017-Apr-26 08:00N 40°38' W 074°10'0 0.0
2017-Apr-26 07:30N 40°38' W 074°10'0 0.0
2017-Apr-26 07:00N 40°38' W 074°10'0 0.0
2017-Apr-26 06:30N 40°38' W 074°10'0 0.0
2017-Apr-26 06:00N 40°38' W 074°10'0 0.0
2017-Apr-26 05:30N 40°38' W 074°10'0 0.0
2017-Apr-26 05:01N 40°38' W 074°10'0 0.0
2017-Apr-26 04:30N 40°38' W 074°10'0 0.0
2017-Apr-26 04:00N 40°38' W 074°10'0 0.0
2017-Apr-26 03:30N 40°38' W 074°10'0 0.0
2017-Apr-26 03:01N 40°38' W 074°10'0 0.0
2017-Apr-26 02:30N 40°38' W 074°10'7 0.8
2017-Apr-25 17:44N 40°33' W 074°15'1 5.6
2017-Apr-25 17:30N 40°33' W 074°14'3 4.5
2017-Apr-25 16:57N 40°36' W 074°12'0 0.0
2017-Apr-25 16:30N 40°36' W 074°12'1 0.6
2017-Apr-25 14:36N 40°35' W 074°13'3 6.3
2017-Apr-25 14:08N 40°33' W 074°15'3 3.7
2017-Apr-25 13:26N 40°34' W 074°13'2 4.8
2017-Apr-25 13:00N 40°36' W 074°12'3 5.7
2017-Apr-25 12:30N 40°39' W 074°10'3 6.8
2017-Apr-25 12:01N 40°39' W 074°06'2 3.4
2017-Apr-25 11:30N 40°40' W 074°04'0 0.0
2017-Apr-25 11:00N 40°40' W 074°04'0 0.0
2017-Apr-25 10:31N 40°40' W 074°04'0 0.0
2017-Apr-25 10:00N 40°40' W 074°04'1 1.5
2017-Apr-25 09:30N 40°40' W 074°05'1 2.0
2017-Apr-25 09:01N 40°40' W 074°04'1 2.4
2017-Apr-25 08:31N 40°39' W 074°05'4 8.0
2017-Apr-25 08:01N 40°39' W 074°10'1 1.8
2017-Apr-25 07:29N 40°38' W 074°12'1 2.6
2017-Apr-25 07:00N 40°38' W 074°10'0 0.1
2017-Apr-25 06:29N 40°38' W 074°10'0 0.1
2017-Apr-25 06:00N 40°38' W 074°10'0 0.0
2017-Apr-25 05:30N 40°38' W 074°10'0 0.0
2017-Apr-25 05:00N 40°38' W 074°10'0 0.0
2017-Apr-25 04:30N 40°38' W 074°10'0 0.0
2017-Apr-25 04:00N 40°38' W 074°10'0 0.0
2017-Apr-25 03:30N 40°38' W 074°10'0 0.0
2017-Apr-25 03:00N 40°38' W 074°10'0 0.0
2017-Apr-25 02:30N 40°38' W 074°10'1 1.2
2017-Apr-25 02:00N 40°39' W 074°10'2 3.5
2017-Apr-25 01:30N 40°38' W 074°12'4 8.3
2017-Apr-25 00:58N 40°33' W 074°14'0 0.0
2017-Apr-24 21:59N 40°33' W 074°14'0 0.0
2017-Apr-24 20:31N 40°34' W 074°14'0 0.3
2017-Apr-24 20:07N 40°33' W 074°14'0 0.3
2017-Apr-24 19:56N 40°33' W 074°14'0 0.0
2017-Apr-24 19:30N 40°33' W 074°14'1 2.0
2017-Apr-24 18:50N 40°34' W 074°13'3 7.9
2017-Apr-24 18:31N 40°37' W 074°12'4 7.2
2017-Apr-24 18:00N 40°39' W 074°09'1 2.4
2017-Apr-24 17:31N 40°40' W 074°08'2 3.5
2017-Apr-24 17:01N 40°39' W 074°08'4 7.2
2017-Apr-24 16:31N 40°38' W 074°03'0 0.7
2017-Apr-24 16:00N 40°38' W 074°04'5 9.1
2017-Apr-24 15:30N 40°38' W 074°10'0 0.1
2017-Apr-24 15:00N 40°38' W 074°10'0 0.0
2017-Apr-24 14:30N 40°38' W 074°10'0 0.0
2017-Apr-24 13:31N 40°38' W 074°10'2 3.1
2017-Apr-24 13:00N 40°38' W 074°12'0 0.5
2017-Apr-24 12:30N 40°38' W 074°12'0 0.0
2017-Apr-24 12:01N 40°38' W 074°12'0 0.3
2017-Apr-24 11:30N 40°38' W 074°12'2 3.3
2017-Apr-24 11:00N 40°39' W 074°10'2 4.0
2017-Apr-24 10:30N 40°39' W 074°07'0 0.1
2017-Apr-24 10:01N 40°39' W 074°07'3 5.7
2017-Apr-24 09:30N 40°39' W 074°04'2 3.1
2017-Apr-24 09:00N 40°37' W 074°03'1 1.5
2017-Apr-24 08:30N 40°38' W 074°03'4 8.4
2017-Apr-24 08:01N 40°38' W 074°09'1 1.7
2017-Apr-24 07:30N 40°38' W 074°10'0 0.0
2017-Apr-24 07:01N 40°38' W 074°10'0 0.0
2017-Apr-24 06:30N 40°38' W 074°10'0 0.0
2017-Apr-24 06:00N 40°38' W 074°10'0 0.0
2017-Apr-24 05:30N 40°38' W 074°10'0 0.0
2017-Apr-24 05:00N 40°38' W 074°10'0 0.0
2017-Apr-24 04:30N 40°38' W 074°10'0 0.0
2017-Apr-24 04:00N 40°38' W 074°10'0 0.0
2017-Apr-24 03:30N 40°38' W 074°10'0 0.0
2017-Apr-24 03:00N 40°38' W 074°10'0 0.0
2017-Apr-24 02:30N 40°38' W 074°10'0 0.0
2017-Apr-24 02:00N 40°38' W 074°10'0 0.0
2017-Apr-24 01:31N 40°38' W 074°10'0 0.0
2017-Apr-24 01:00N 40°38' W 074°10'0 0.0
2017-Apr-24 00:31N 40°38' W 074°10'3 6.3
2017-Apr-24 00:00N 40°41' W 074°08'1 1.4
2017-Apr-23 23:30N 40°42' W 074°09'2 4.5
2017-Apr-23 23:01N 40°40' W 074°09'3 6.1
2017-Apr-23 22:30N 40°39' W 074°05'1 2.6
2017-Apr-23 22:00N 40°38' W 074°04'3 6.1
2017-Apr-23 21:30N 40°39' W 074°08'2 3.1
2017-Apr-23 21:00N 40°38' W 074°10'3 6.8
2017-Apr-23 20:30N 40°42' W 074°09'2 5.0
2017-Apr-23 20:00N 40°39' W 074°09'1 1.6
2017-Apr-23 19:31N 40°38' W 074°09'1 1.8
2017-Apr-23 18:59N 40°38' W 074°10'0 0.0
2017-Apr-23 18:30N 40°38' W 074°10'0 0.0
2017-Apr-23 18:00N 40°38' W 074°10'0 0.0
2017-Apr-23 17:30N 40°38' W 074°10'0 0.0
2017-Apr-23 17:00N 40°38' W 074°10'0 0.0
2017-Apr-23 16:30N 40°38' W 074°10'0 0.0
2017-Apr-23 16:00N 40°38' W 074°10'0 0.0
2017-Apr-23 15:30N 40°38' W 074°10'0 0.0
2017-Apr-23 15:00N 40°38' W 074°10'0 0.0
2017-Apr-23 14:30N 40°38' W 074°10'0 0.0
2017-Apr-23 13:31N 40°38' W 074°10'0 0.0
2017-Apr-23 13:00N 40°38' W 074°10'0 0.0
2017-Apr-23 12:30N 40°38' W 074°10'0 0.0
2017-Apr-23 12:00N 40°38' W 074°10'0 0.0
2017-Apr-23 11:30N 40°38' W 074°10'0 0.0
2017-Apr-23 11:01N 40°38' W 074°10'0 0.0
2017-Apr-23 10:30N 40°38' W 074°10'4 3.4
2017-Apr-23 09:19N 40°35' W 074°13'0 0.0
2017-Apr-23 08:59N 40°35' W 074°13'0 0.4
2017-Apr-23 08:27N 40°35' W 074°12'2 3.8
2017-Apr-23 07:59N 40°37' W 074°12'2 4.5
2017-Apr-23 07:30N 40°39' W 074°11'1 1.2
2017-Apr-23 07:00N 40°38' W 074°10'0 0.0
2017-Apr-23 06:30N 40°38' W 074°10'0 0.0
2017-Apr-23 06:00N 40°38' W 074°10'0 0.0
2017-Apr-23 05:30N 40°38' W 074°10'0 0.0
2017-Apr-23 05:01N 40°38' W 074°10'0 0.0
2017-Apr-23 04:31N 40°38' W 074°10'0 0.0
2017-Apr-23 04:00N 40°38' W 074°10'0 0.0
2017-Apr-23 03:29N 40°38' W 074°10'0 0.0
2017-Apr-23 03:00N 40°38' W 074°10'0 0.0
2017-Apr-23 02:31N 40°38' W 074°10'0 0.0
2017-Apr-23 02:00N 40°38' W 074°10'0 0.0
2017-Apr-23 01:30N 40°38' W 074°10'0 0.0
2017-Apr-23 01:00N 40°38' W 074°10'0 0.0
2017-Apr-23 00:30N 40°38' W 074°10'1 2.1
2017-Apr-23 00:00N 40°39' W 074°08'2 4.6
2017-Apr-22 23:30N 40°39' W 074°05'0 0.0
2017-Apr-22 23:00N 40°39' W 074°05'0 0.7
2017-Apr-22 22:30N 40°39' W 074°06'0 0.1
2017-Apr-22 22:00N 40°39' W 074°06'0 0.0
2017-Apr-22 21:30N 40°39' W 074°06'3 5.8
2017-Apr-22 21:01N 40°38' W 074°09'0 0.5
2017-Apr-22 20:30N 40°38' W 074°10'0 0.0
2017-Apr-22 20:00N 40°38' W 074°10'0 0.0
2017-Apr-22 19:30N 40°38' W 074°10'0 0.0
2017-Apr-22 19:00N 40°38' W 074°10'0 0.0
2017-Apr-22 18:30N 40°38' W 074°10'0 0.0
2017-Apr-22 18:00N 40°38' W 074°10'0 0.0
2017-Apr-22 17:30N 40°38' W 074°10'0 0.0
2017-Apr-22 17:00N 40°38' W 074°10'0 0.0
2017-Apr-22 16:30N 40°38' W 074°10'0 0.0
2017-Apr-22 16:00N 40°38' W 074°10'0 0.0
2017-Apr-22 15:30N 40°38' W 074°10'0 0.0
2017-Apr-22 15:00N 40°38' W 074°10'0 0.0
2017-Apr-22 14:30N 40°38' W 074°10'0 0.0
2017-Apr-22 13:30N 40°38' W 074°10'0 0.0
2017-Apr-22 13:00N 40°38' W 074°10'0 0.0
2017-Apr-22 12:30N 40°38' W 074°10'0 0.0
2017-Apr-22 12:00N 40°38' W 074°10'0 0.0
2017-Apr-22 11:30N 40°38' W 074°10'0 0.0
2017-Apr-22 11:01N 40°38' W 074°10'0 0.0
2017-Apr-22 10:30N 40°38' W 074°10'0 0.0
2017-Apr-22 10:00N 40°38' W 074°10'0 0.0
2017-Apr-22 09:30N 40°38' W 074°10'0 0.0
2017-Apr-22 09:00N 40°38' W 074°10'0 0.0
2017-Apr-22 08:30N 40°38' W 074°10'0 0.5
2017-Apr-22 08:00N 40°38' W 074°09'1 1.2
2017-Apr-22 07:28N 40°39' W 074°09'1 2.9
2017-Apr-22 07:00N 40°40' W 074°08'1 1.8
2017-Apr-22 06:30N 40°39' W 074°09'3 6.3
2017-Apr-22 06:01N 40°40' W 074°05'0 0.3
2017-Apr-22 05:31N 40°40' W 074°05'3 5.7
2017-Apr-22 05:00N 40°37' W 074°04'0 0.3
2017-Apr-22 04:30N 40°37' W 074°03'2 4.8
2017-Apr-22 04:00N 40°40' W 074°04'1 1.8
2017-Apr-22 03:30N 40°40' W 074°05'0 0.0
2017-Apr-22 03:00N 40°40' W 074°05'0 0.0
2017-Apr-22 02:30N 40°40' W 074°05'0 0.0
2017-Apr-22 02:00N 40°40' W 074°05'0 0.0
2017-Apr-22 01:30N 40°40' W 074°05'0 0.0
2017-Apr-22 01:00N 40°40' W 074°05'0 0.0
2017-Apr-22 00:30N 40°40' W 074°05'0 0.2
2017-Apr-22 00:00N 40°40' W 074°05'0 0.2
2017-Apr-21 23:30N 40°40' W 074°05'0 0.0
2017-Apr-21 23:00N 40°40' W 074°05'0 0.0
2017-Apr-21 22:30N 40°40' W 074°05'0 0.0
2017-Apr-21 22:00N 40°40' W 074°05'0 0.0
2017-Apr-21 21:30N 40°40' W 074°05'0 0.0
2017-Apr-21 21:00N 40°40' W 074°05'0 0.1
2017-Apr-21 20:30N 40°40' W 074°05'1 2.5
2017-Apr-21 20:00N 40°40' W 074°04'1 1.9
2017-Apr-21 19:30N 40°40' W 074°05'0 0.6
2017-Apr-21 19:00N 40°40' W 074°05'0 0.1
2017-Apr-21 18:30N 40°40' W 074°05'0 0.0
2017-Apr-21 18:00N 40°40' W 074°05'0 0.5
2017-Apr-21 17:30N 40°40' W 074°05'4 8.3
2017-Apr-21 17:01N 40°42' W 073°60'5 9.2
2017-Apr-21 16:30N 40°46' W 073°57'5 9.2
2017-Apr-21 16:00N 40°48' W 073°51'3 4.7
2017-Apr-21 15:27N 40°48' W 073°48'0 0.1
2017-Apr-21 14:58N 40°48' W 073°48'1 1.1
2017-Apr-21 14:28N 40°48' W 073°47'2 1.5
2017-Apr-21 13:28N 40°48' W 073°49'4 9.0
2017-Apr-21 13:00N 40°48' W 073°55'4 7.1
2017-Apr-21 12:30N 40°45' W 073°58'3 6.8
2017-Apr-21 12:00N 40°42' W 073°60'5 9.0
2017-Apr-21 11:30N 40°39' W 074°05'4 8.2
2017-Apr-21 11:00N 40°38' W 074°10'2 3.0
2017-Apr-21 10:30N 40°40' W 074°09'1 1.0
2017-Apr-21 10:00N 40°40' W 074°08'2 3.2
2017-Apr-21 09:30N 40°39' W 074°09'4 8.5
2017-Apr-21 09:01N 40°38' W 074°03'3 5.7
2017-Apr-21 08:30N 40°39' W 074°07'2 4.2
2017-Apr-21 08:00N 40°38' W 074°10'0 0.0
2017-Apr-21 07:30N 40°38' W 074°10'0 0.0
2017-Apr-21 07:00N 40°38' W 074°10'0 0.0
2017-Apr-21 06:30N 40°38' W 074°10'0 0.0
2017-Apr-21 06:00N 40°38' W 074°10'0 0.0
2017-Apr-21 05:30N 40°38' W 074°10'0 0.2
2017-Apr-21 05:00N 40°38' W 074°10'2 4.0
2017-Apr-21 04:30N 40°39' W 074°07'2 3.0
2017-Apr-21 04:00N 40°39' W 074°09'1 2.3
2017-Apr-21 03:30N 40°40' W 074°08'0 0.3
2017-Apr-21 03:00N 40°40' W 074°09'3 5.7
2017-Apr-21 02:30N 40°38' W 074°12'2 3.8
2017-Apr-21 02:00N 40°36' W 074°12'0 0.0
2017-Apr-21 01:30N 40°36' W 074°12'1 1.5
2017-Apr-21 01:00N 40°36' W 074°12'0 0.0
2017-Apr-21 00:30N 40°36' W 074°12'0 0.0
2017-Apr-20 23:59N 40°36' W 074°12'0 0.0
2017-Apr-20 23:30N 40°36' W 074°12'0 0.0
2017-Apr-20 23:00N 40°36' W 074°12'0 0.0
2017-Apr-20 21:36N 40°36' W 074°12'0 0.1
2017-Apr-20 21:29N 40°36' W 074°12'4 6.5
2017-Apr-20 20:54N 40°33' W 074°15'0 0.0
2017-Apr-20 20:27N 40°33' W 074°15'0 0.0
2017-Apr-20 19:53N 40°33' W 074°15'4 6.4
2017-Apr-20 19:15N 40°36' W 074°12'2 7.8
2017-Apr-20 19:00N 40°38' W 074°12'3 5.5
2017-Apr-20 18:30N 40°39' W 074°09'1 1.1
2017-Apr-20 18:00N 40°40' W 074°09'0 0.0
2017-Apr-20 17:30N 40°40' W 074°09'0 0.0
2017-Apr-20 17:00N 40°40' W 074°09'0 0.0
2017-Apr-20 16:30N 40°40' W 074°09'0 0.0
2017-Apr-20 16:00N 40°40' W 074°09'0 0.0
2017-Apr-20 15:30N 40°40' W 074°09'0 0.0
2017-Apr-20 15:00N 40°40' W 074°09'0 0.0
2017-Apr-20 14:30N 40°40' W 074°09'0 0.0
2017-Apr-20 13:30N 40°40' W 074°09'0 0.1
2017-Apr-20 13:00N 40°40' W 074°09'0 0.1
2017-Apr-20 12:30N 40°40' W 074°09'0 0.0
2017-Apr-20 12:00N 40°40' W 074°09'0 0.0
2017-Apr-20 11:30N 40°40' W 074°09'0 0.0
2017-Apr-20 11:00N 40°40' W 074°09'0 0.0
2017-Apr-20 10:30N 40°40' W 074°09'1 1.0
2017-Apr-20 10:00N 40°40' W 074°09'1 2.7
2017-Apr-20 09:30N 40°39' W 074°09'3 5.3
2017-Apr-20 09:00N 40°39' W 074°05'3 6.0
2017-Apr-20 08:30N 40°37' W 074°03'3 5.5
2017-Apr-20 08:00N 40°39' W 074°05'3 6.5
2017-Apr-20 07:30N 40°38' W 074°09'1 1.0
2017-Apr-20 07:00N 40°38' W 074°10'0 0.0
2017-Apr-20 06:30N 40°38' W 074°10'0 0.0
2017-Apr-20 06:00N 40°38' W 074°10'0 0.0
2017-Apr-20 05:30N 40°38' W 074°10'0 0.0
2017-Apr-20 05:00N 40°38' W 074°10'0 0.0
2017-Apr-20 04:30N 40°38' W 074°10'0 0.0
2017-Apr-20 04:00N 40°38' W 074°10'0 0.0
2017-Apr-20 03:30N 40°38' W 074°10'0 0.0
2017-Apr-20 03:00N 40°38' W 074°10'0 0.0
2017-Apr-20 02:30N 40°38' W 074°10'0 0.0
2017-Apr-20 02:00N 40°38' W 074°10'0 0.0
2017-Apr-20 01:30N 40°38' W 074°10'0 0.0
2017-Apr-20 01:00N 40°38' W 074°10'1 2.0
2017-Apr-20 00:30N 40°39' W 074°08'1 2.4
2017-Apr-20 00:00N 40°39' W 074°07'2 3.0
2017-Apr-19 23:29N 40°39' W 074°09'2 3.3
2017-Apr-19 23:00N 40°41' W 074°09'0 0.5
2017-Apr-19 22:30N 40°41' W 074°09'0 0.3
2017-Apr-19 22:00N 40°41' W 074°09'2 3.0
2017-Apr-19 21:29N 40°40' W 074°09'1 2.7
2017-Apr-19 20:59N 40°39' W 074°07'2 4.4
2017-Apr-19 20:30N 40°39' W 074°05'3 6.2
2017-Apr-19 20:00N 40°36' W 074°03'3 6.1
2017-Apr-19 19:30N 40°39' W 074°05'4 8.0
2017-Apr-19 19:00N 40°38' W 074°10'0 0.0
2017-Apr-19 18:28N 40°38' W 074°10'0 0.0
2017-Apr-19 18:00N 40°38' W 074°10'0 0.0
2017-Apr-19 17:30N 40°38' W 074°10'2 4.1
2017-Apr-19 17:00N 40°39' W 074°07'3 5.6
2017-Apr-19 16:30N 40°40' W 074°04'1 1.9
2017-Apr-19 16:00N 40°40' W 074°05'1 1.2
2017-Apr-19 15:31N 40°40' W 074°04'  

Dump ship's entire track history